sensor_id;sensor_type;location;lat;lon;timestamp;temperature;humidity
21928;DHT22;11128;51.096;17.190;2023-05-07T00:01:28;9.00;1.00
21928;DHT22;11128;51.096;17.190;2023-05-07T00:06:30;9.00;1.00
21928;DHT22;11128;51.096;17.190;2023-05-07T00:11:31;9.00;99.90
21928;DHT22;11128;51.096;17.190;2023-05-07T00:16:33;9.10;1.00
21928;DHT22;11128;51.096;17.190;2023-05-07T00:21:34;9.00;1.00
21928;DHT22;11128;51.096;17.190;2023-05-07T00:26:36;9.00;99.90
21928;DHT22;11128;51.096;17.190;2023-05-07T00:31:37;9.00;1.00
21928;DHT22;11128;51.096;17.190;2023-05-07T00:36:39;9.00;99.90
21928;DHT22;11128;51.096;17.190;2023-05-07T00:41:40;9.00;5.70
21928;DHT22;11128;51.096;17.190;2023-05-07T00:46:41;9.00;99.90
21928;DHT22;11128;51.096;17.190;2023-05-07T00:51:43;8.90;99.90
21928;DHT22;11128;51.096;17.190;2023-05-07T00:56:44;8.90;1.00
21928;DHT22;11128;51.096;17.190;2023-05-07T01:01:46;8.80;1.00
21928;DHT22;11128;51.096;17.190;2023-05-07T01:06:49;8.90;1.00
21928;DHT22;11128;51.096;17.190;2023-05-07T01:11:51;8.90;1.00
21928;DHT22;11128;51.096;17.190;2023-05-07T01:16:53;8.90;13.60
21928;DHT22;11128;51.096;17.190;2023-05-07T01:22:03;9.20;99.90
21928;DHT22;11128;51.096;17.190;2023-05-07T01:27:08;8.90;99.90
21928;DHT22;11128;51.096;17.190;2023-05-07T01:32:10;9.10;1.00
21928;DHT22;11128;51.096;17.190;2023-05-07T01:37:13;8.80;99.90
21928;DHT22;11128;51.096;17.190;2023-05-07T01:42:15;8.80;1.00
21928;DHT22;11128;51.096;17.190;2023-05-07T01:47:17;8.80;99.90
21928;DHT22;11128;51.096;17.190;2023-05-07T01:52:18;8.70;3.90
21928;DHT22;11128;51.096;17.190;2023-05-07T01:57:20;8.70;1.00
21928;DHT22;11128;51.096;17.190;2023-05-07T02:02:22;8.80;28.10
21928;DHT22;11128;51.096;17.190;2023-05-07T02:07:23;8.80;1.00
21928;DHT22;11128;51.096;17.190;2023-05-07T02:12:24;8.80;1.00
21928;DHT22;11128;51.096;17.190;2023-05-07T02:17:26;8.70;1.00
21928;DHT22;11128;51.096;17.190;2023-05-07T02:22:27;8.70;1.00
21928;DHT22;11128;51.096;17.190;2023-05-07T02:27:28;8.70;1.00
21928;DHT22;11128;51.096;17.190;2023-05-07T02:32:30;8.90;1.00
21928;DHT22;11128;51.096;17.190;2023-05-07T02:37:31;8.70;1.00
21928;DHT22;11128;51.096;17.190;2023-05-07T02:42:33;8.70;1.00
21928;DHT22;11128;51.096;17.190;2023-05-07T02:47:34;8.60;99.90
21928;DHT22;11128;51.096;17.190;2023-05-07T02:52:36;8.60;99.90
21928;DHT22;11128;51.096;17.190;2023-05-07T02:57:37;8.60;1.00
21928;DHT22;11128;51.096;17.190;2023-05-07T03:02:38;8.60;99.90
21928;DHT22;11128;51.096;17.190;2023-05-07T03:07:40;8.50;1.00
21928;DHT22;11128;51.096;17.190;2023-05-07T03:12:45;8.50;1.00
21928;DHT22;11128;51.096;17.190;2023-05-07T03:17:47;8.70;1.00
21928;DHT22;11128;51.096;17.190;2023-05-07T03:22:48;8.50;95.10
21928;DHT22;11128;51.096;17.190;2023-05-07T03:27:50;8.40;99.90
21928;DHT22;11128;51.096;17.190;2023-05-07T03:32:51;8.40;1.00
21928;DHT22;11128;51.096;17.190;2023-05-07T03:37:52;8.50;1.00
21928;DHT22;11128;51.096;17.190;2023-05-07T03:42:54;8.60;1.00
21928;DHT22;11128;51.096;17.190;2023-05-07T03:47:55;8.40;1.00
21928;DHT22;11128;51.096;17.190;2023-05-07T03:52:57;8.40;1.00
21928;DHT22;11128;51.096;17.190;2023-05-07T03:57:58;8.30;1.00
21928;DHT22;11128;51.096;17.190;2023-05-07T04:03:00;8.40;1.00
21928;DHT22;11128;51.096;17.190;2023-05-07T04:08:01;8.40;1.00
21928;DHT22;11128;51.096;17.190;2023-05-07T04:13:03;8.40;1.00
21928;DHT22;11128;51.096;17.190;2023-05-07T04:18:05;8.50;1.00
21928;DHT22;11128;51.096;17.190;2023-05-07T04:23:06;8.50;99.90
21928;DHT22;11128;51.096;17.190;2023-05-07T04:28:08;8.50;99.90
21928;DHT22;11128;51.096;17.190;2023-05-07T04:33:09;8.50;99.90
21928;DHT22;11128;51.096;17.190;2023-05-07T04:38:11;8.50;99.90
21928;DHT22;11128;51.096;17.190;2023-05-07T04:43:13;8.50;1.00
21928;DHT22;11128;51.096;17.190;2023-05-07T04:48:14;8.50;99.90
21928;DHT22;11128;51.096;17.190;2023-05-07T04:53:17;8.80;14.20
21928;DHT22;11128;51.096;17.190;2023-05-07T04:58:18;8.70;5.90
21928;DHT22;11128;51.096;17.190;2023-05-07T05:03:20;8.70;1.00
21928;DHT22;11128;51.096;17.190;2023-05-07T05:08:21;8.80;1.00
21928;DHT22;11128;51.096;17.190;2023-05-07T05:13:23;8.80;1.00
21928;DHT22;11128;51.096;17.190;2023-05-07T05:18:24;8.80;1.00
21928;DHT22;11128;51.096;17.190;2023-05-07T05:23:26;8.80;1.00
21928;DHT22;11128;51.096;17.190;2023-05-07T05:28:27;8.90;99.90
21928;DHT22;11128;51.096;17.190;2023-05-07T05:33:29;8.90;99.90
21928;DHT22;11128;51.096;17.190;2023-05-07T05:38:30;8.90;1.00
21928;DHT22;11128;51.096;17.190;2023-05-07T05:43:31;9.00;99.90
21928;DHT22;11128;51.096;17.190;2023-05-07T05:48:33;9.10;1.00
21928;DHT22;11128;51.096;17.190;2023-05-07T05:53:34;9.10;99.90
21928;DHT22;11128;51.096;17.190;2023-05-07T05:58:36;9.20;1.00
21928;DHT22;11128;51.096;17.190;2023-05-07T06:03:37;9.30;99.90
21928;DHT22;11128;51.096;17.190;2023-05-07T06:08:38;9.20;72.70
21928;DHT22;11128;51.096;17.190;2023-05-07T06:13:40;9.30;1.00
21928;DHT22;11128;51.096;17.190;2023-05-07T06:18:41;9.40;1.00
21928;DHT22;11128;51.096;17.190;2023-05-07T06:23:43;9.50;1.00
21928;DHT22;11128;51.096;17.190;2023-05-07T06:28:44;9.60;1.80
21928;DHT22;11128;51.096;17.190;2023-05-07T06:33:45;9.50;99.90
21928;DHT22;11128;51.096;17.190;2023-05-07T06:38:46;9.50;40.70
21928;DHT22;11128;51.096;17.190;2023-05-07T06:43:48;9.40;99.90
21928;DHT22;11128;51.096;17.190;2023-05-07T06:48:49;9.20;99.90
21928;DHT22;11128;51.096;17.190;2023-05-07T06:53:50;9.20;99.90
21928;DHT22;11128;51.096;17.190;2023-05-07T06:58:52;9.20;1.00
21928;DHT22;11128;51.096;17.190;2023-05-07T07:03:53;9.20;1.00
21928;DHT22;11128;51.096;17.190;2023-05-07T07:08:54;9.30;1.00
21928;DHT22;11128;51.096;17.190;2023-05-07T07:13:56;9.40;99.90
21928;DHT22;11128;51.096;17.190;2023-05-07T07:18:57;9.50;99.90
21928;DHT22;11128;51.096;17.190;2023-05-07T07:23:58;9.60;99.90
21928;DHT22;11128;51.096;17.190;2023-05-07T07:29:00;9.80;61.20
21928;DHT22;11128;51.096;17.190;2023-05-07T07:34:01;9.80;36.70
21928;DHT22;11128;51.096;17.190;2023-05-07T07:39:02;9.80;19.20
21928;DHT22;11128;51.096;17.190;2023-05-07T07:44:03;9.80;99.90
21928;DHT22;11128;51.096;17.190;2023-05-07T07:49:08;9.80;1.00
21928;DHT22;11128;51.096;17.190;2023-05-07T07:54:09;9.70;99.90
21928;DHT22;11128;51.096;17.190;2023-05-07T07:59:10;9.70;99.90
21928;DHT22;11128;51.096;17.190;2023-05-07T08:04:12;9.50;99.90
21928;DHT22;11128;51.096;17.190;2023-05-07T08:09:13;9.50;99.90
21928;DHT22;11128;51.096;17.190;2023-05-07T08:14:15;9.50;99.90
21928;DHT22;11128;51.096;17.190;2023-05-07T08:19:16;9.50;1.00
21928;DHT22;11128;51.096;17.190;2023-05-07T08:24:18;9.50;1.00
21928;DHT22;11128;51.096;17.190;2023-05-07T08:29:19;9.50;21.00
21928;DHT22;11128;51.096;17.190;2023-05-07T08:34:22;9.50;99.90
21928;DHT22;11128;51.096;17.190;2023-05-07T08:39:23;9.50;99.90
21928;DHT22;11128;51.096;17.190;2023-05-07T08:44:26;9.40;99.90
21928;DHT22;11128;51.096;17.190;2023-05-07T08:49:29;9.50;99.90
21928;DHT22;11128;51.096;17.190;2023-05-07T08:54:31;9.50;26.40
21928;DHT22;11128;51.096;17.190;2023-05-07T08:59:32;9.50;99.90
21928;DHT22;11128;51.096;17.190;2023-05-07T09:04:34;9.60;92.80
21928;DHT22;11128;51.096;17.190;2023-05-07T09:09:35;9.70;99.90
21928;DHT22;11128;51.096;17.190;2023-05-07T09:14:38;9.70;1.00
21928;DHT22;11128;51.096;17.190;2023-05-07T09:19:40;9.70;1.00
21928;DHT22;11128;51.096;17.190;2023-05-07T09:24:47;9.90;1.00
21928;DHT22;11128;51.096;17.190;2023-05-07T09:29:50;10.20;1.00
21928;DHT22;11128;51.096;17.190;2023-05-07T09:34:51;10.20;1.00
21928;DHT22;11128;51.096;17.190;2023-05-07T09:39:52;10.20;1.00
21928;DHT22;11128;51.096;17.190;2023-05-07T09:44:54;10.10;1.00
21928;DHT22;11128;51.096;17.190;2023-05-07T09:49:56;9.90;1.00
21928;DHT22;11128;51.096;17.190;2023-05-07T09:55:01;10.50;99.90
21928;DHT22;11128;51.096;17.190;2023-05-07T10:00:03;11.20;99.90
21928;DHT22;11128;51.096;17.190;2023-05-07T10:05:05;11.30;1.00
21928;DHT22;11128;51.096;17.190;2023-05-07T10:10:08;11.50;1.00
21928;DHT22;11128;51.096;17.190;2023-05-07T10:15:10;11.50;1.00
21928;DHT22;11128;51.096;17.190;2023-05-07T10:20:12;11.40;1.00
21928;DHT22;11128;51.096;17.190;2023-05-07T10:25:18;11.80;1.00
21928;DHT22;11128;51.096;17.190;2023-05-07T10:35:58;14.10;99.90
21928;DHT22;11128;51.096;17.190;2023-05-07T10:41:01;11.90;1.00
21928;DHT22;11128;51.096;17.190;2023-05-07T10:46:32;11.60;1.00
21928;DHT22;11128;51.096;17.190;2023-05-07T10:51:36;11.40;1.00
21928;DHT22;11128;51.096;17.190;2023-05-07T10:56:40;11.40;1.00
21928;DHT22;11128;51.096;17.190;2023-05-07T11:07:25;11.70;1.00
21928;DHT22;11128;51.096;17.190;2023-05-07T11:17:53;12.10;99.90
21928;DHT22;11128;51.096;17.190;2023-05-07T11:22:54;11.90;1.00
21928;DHT22;11128;51.096;17.190;2023-05-07T11:28:07;11.90;1.00
21928;DHT22;11128;51.096;17.190;2023-05-07T11:33:11;12.10;1.00
21928;DHT22;11128;51.096;17.190;2023-05-07T11:38:13;12.20;99.90
21928;DHT22;11128;51.096;17.190;2023-05-07T11:43:15;11.90;99.90
21928;DHT22;11128;51.096;17.190;2023-05-07T11:48:17;11.90;99.90
21928;DHT22;11128;51.096;17.190;2023-05-07T11:53:19;11.90;1.00
21928;DHT22;11128;51.096;17.190;2023-05-07T11:58:23;12.00;99.90
21928;DHT22;11128;51.096;17.190;2023-05-07T12:03:24;12.00;1.00
21928;DHT22;11128;51.096;17.190;2023-05-07T12:08:26;12.00;99.90
21928;DHT22;11128;51.096;17.190;2023-05-07T12:13:27;11.80;99.90
21928;DHT22;11128;51.096;17.190;2023-05-07T12:18:29;11.80;99.90
21928;DHT22;11128;51.096;17.190;2023-05-07T12:23:31;11.70;99.90
21928;DHT22;11128;51.096;17.190;2023-05-07T12:28:37;11.80;99.90
21928;DHT22;11128;51.096;17.190;2023-05-07T12:33:39;11.80;99.90
21928;DHT22;11128;51.096;17.190;2023-05-07T12:38:41;11.80;1.00
21928;DHT22;11128;51.096;17.190;2023-05-07T12:43:46;12.00;1.00
21928;DHT22;11128;51.096;17.190;2023-05-07T12:48:48;12.10;99.90
21928;DHT22;11128;51.096;17.190;2023-05-07T12:53:49;12.00;99.90
21928;DHT22;11128;51.096;17.190;2023-05-07T12:58:51;11.90;99.90
21928;DHT22;11128;51.096;17.190;2023-05-07T13:03:52;11.90;99.90
21928;DHT22;11128;51.096;17.190;2023-05-07T13:08:53;11.70;1.00
21928;DHT22;11128;51.096;17.190;2023-05-07T13:13:54;11.70;1.00
21928;DHT22;11128;51.096;17.190;2023-05-07T13:18:56;11.60;99.90
21928;DHT22;11128;51.096;17.190;2023-05-07T13:23:57;11.60;99.90
21928;DHT22;11128;51.096;17.190;2023-05-07T13:28:59;11.70;99.90
21928;DHT22;11128;51.096;17.190;2023-05-07T13:34:00;11.60;99.90
21928;DHT22;11128;51.096;17.190;2023-05-07T13:39:01;11.70;99.90
21928;DHT22;11128;51.096;17.190;2023-05-07T13:44:03;11.60;99.90
21928;DHT22;11128;51.096;17.190;2023-05-07T13:49:05;11.40;99.90
21928;DHT22;11128;51.096;17.190;2023-05-07T13:54:06;11.30;99.90
21928;DHT22;11128;51.096;17.190;2023-05-07T13:59:09;11.20;99.90
21928;DHT22;11128;51.096;17.190;2023-05-07T14:04:10;11.20;99.90
21928;DHT22;11128;51.096;17.190;2023-05-07T14:09:12;11.10;99.90
21928;DHT22;11128;51.096;17.190;2023-05-07T14:14:14;11.20;99.90
21928;DHT22;11128;51.096;17.190;2023-05-07T14:19:16;8.80;99.90
21928;DHT22;11128;51.096;17.190;2023-05-07T14:24:17;11.30;99.90
21928;DHT22;11128;51.096;17.190;2023-05-07T14:29:18;11.40;99.90
21928;DHT22;11128;51.096;17.190;2023-05-07T14:34:19;11.40;99.90
21928;DHT22;11128;51.096;17.190;2023-05-07T14:39:21;11.30;99.90
21928;DHT22;11128;51.096;17.190;2023-05-07T14:44:22;11.40;99.90
21928;DHT22;11128;51.096;17.190;2023-05-07T14:49:24;11.30;99.90
21928;DHT22;11128;51.096;17.190;2023-05-07T14:54:25;11.60;1.00
21928;DHT22;11128;51.096;17.190;2023-05-07T14:59:27;11.10;99.90
21928;DHT22;11128;51.096;17.190;2023-05-07T15:04:28;11.00;99.90
21928;DHT22;11128;51.096;17.190;2023-05-07T15:09:29;11.00;99.90
21928;DHT22;11128;51.096;17.190;2023-05-07T15:14:31;11.00;99.90
21928;DHT22;11128;51.096;17.190;2023-05-07T15:19:32;11.10;1.00
21928;DHT22;11128;51.096;17.190;2023-05-07T15:24:33;11.10;99.90
21928;DHT22;11128;51.096;17.190;2023-05-07T15:29:34;10.90;1.00
21928;DHT22;11128;51.096;17.190;2023-05-07T15:34:35;11.00;1.00
21928;DHT22;11128;51.096;17.190;2023-05-07T15:39:37;11.10;1.00
21928;DHT22;11128;51.096;17.190;2023-05-07T15:44:38;11.00;1.00
21928;DHT22;11128;51.096;17.190;2023-05-07T15:49:41;10.90;1.00
21928;DHT22;11128;51.096;17.190;2023-05-07T15:54:43;10.90;1.00
21928;DHT22;11128;51.096;17.190;2023-05-07T15:59:44;10.90;1.00
21928;DHT22;11128;51.096;17.190;2023-05-07T16:04:45;10.80;1.00
21928;DHT22;11128;51.096;17.190;2023-05-07T16:14:49;10.70;1.00
21928;DHT22;11128;51.096;17.190;2023-05-07T16:19:51;10.70;1.00
21928;DHT22;11128;51.096;17.190;2023-05-07T16:24:53;10.40;1.00
21928;DHT22;11128;51.096;17.190;2023-05-07T16:29:54;10.80;1.00
21928;DHT22;11128;51.096;17.190;2023-05-07T16:34:55;10.70;1.00
21928;DHT22;11128;51.096;17.190;2023-05-07T16:45:00;10.60;1.00
21928;DHT22;11128;51.096;17.190;2023-05-07T16:50:02;10.80;1.00
21928;DHT22;11128;51.096;17.190;2023-05-07T17:00:07;11.00;1.00
21928;DHT22;11128;51.096;17.190;2023-05-07T17:05:09;10.30;1.00
21928;DHT22;11128;51.096;17.190;2023-05-07T17:10:11;10.40;1.00
21928;DHT22;11128;51.096;17.190;2023-05-07T17:15:12;10.40;7.80
21928;DHT22;11128;51.096;17.190;2023-05-07T17:20:13;10.40;1.00
21928;DHT22;11128;51.096;17.190;2023-05-07T17:25:14;10.00;19.50
21928;DHT22;11128;51.096;17.190;2023-05-07T17:30:16;10.20;1.00
21928;DHT22;11128;51.096;17.190;2023-05-07T17:35:18;10.10;1.00
21928;DHT22;11128;51.096;17.190;2023-05-07T17:40:20;10.10;1.00
21928;DHT22;11128;51.096;17.190;2023-05-07T17:45:24;10.10;99.90
21928;DHT22;11128;51.096;17.190;2023-05-07T17:50:25;10.10;1.00
21928;DHT22;11128;51.096;17.190;2023-05-07T17:55:29;9.70;99.90
21928;DHT22;11128;51.096;17.190;2023-05-07T18:05:35;9.70;99.90
21928;DHT22;11128;51.096;17.190;2023-05-07T18:10:37;9.70;51.70
21928;DHT22;11128;51.096;17.190;2023-05-07T18:15:38;9.70;1.00
21928;DHT22;11128;51.096;17.190;2023-05-07T18:20:40;9.70;1.00
21928;DHT22;11128;51.096;17.190;2023-05-07T18:25:42;9.60;1.00
21928;DHT22;11128;51.096;17.190;2023-05-07T18:30:44;9.60;1.00
21928;DHT22;11128;51.096;17.190;2023-05-07T18:35:45;9.60;1.00
21928;DHT22;11128;51.096;17.190;2023-05-07T18:40:46;9.60;1.00
21928;DHT22;11128;51.096;17.190;2023-05-07T18:45:47;9.60;1.00
21928;DHT22;11128;51.096;17.190;2023-05-07T18:50:49;9.50;1.00
21928;DHT22;11128;51.096;17.190;2023-05-07T18:55:51;9.40;47.90
21928;DHT22;11128;51.096;17.190;2023-05-07T19:00:53;9.40;54.20
21928;DHT22;11128;51.096;17.190;2023-05-07T19:05:55;9.40;99.90
21928;DHT22;11128;51.096;17.190;2023-05-07T19:10:57;9.30;60.80
21928;DHT22;11128;51.096;17.190;2023-05-07T19:15:58;9.30;77.00
21928;DHT22;11128;51.096;17.190;2023-05-07T19:21:00;9.30;45.40
21928;DHT22;11128;51.096;17.190;2023-05-07T19:26:01;9.20;86.00
21928;DHT22;11128;51.096;17.190;2023-05-07T19:31:03;9.20;1.00
21928;DHT22;11128;51.096;17.190;2023-05-07T19:36:04;9.20;1.00
21928;DHT22;11128;51.096;17.190;2023-05-07T19:41:06;9.20;1.00
21928;DHT22;11128;51.096;17.190;2023-05-07T19:46:07;9.10;1.00
21928;DHT22;11128;51.096;17.190;2023-05-07T19:51:09;9.10;1.00
21928;DHT22;11128;51.096;17.190;2023-05-07T19:56:11;9.10;1.00
21928;DHT22;11128;51.096;17.190;2023-05-07T20:01:12;9.10;1.00
21928;DHT22;11128;51.096;17.190;2023-05-07T20:06:13;9.10;1.00
21928;DHT22;11128;51.096;17.190;2023-05-07T20:11:15;9.10;1.00
21928;DHT22;11128;51.096;17.190;2023-05-07T20:16:16;9.00;1.00
21928;DHT22;11128;51.096;17.190;2023-05-07T20:21:17;9.00;1.00
21928;DHT22;11128;51.096;17.190;2023-05-07T20:26:19;9.00;1.00
21928;DHT22;11128;51.096;17.190;2023-05-07T20:31:21;9.00;1.00
21928;DHT22;11128;51.096;17.190;2023-05-07T20:36:22;8.90;1.00
21928;DHT22;11128;51.096;17.190;2023-05-07T20:41:26;8.90;99.90
21928;DHT22;11128;51.096;17.190;2023-05-07T20:46:27;8.80;99.90
21928;DHT22;11128;51.096;17.190;2023-05-07T20:51:29;8.70;99.90
21928;DHT22;11128;51.096;17.190;2023-05-07T20:56:31;8.70;99.90
21928;DHT22;11128;51.096;17.190;2023-05-07T21:01:33;8.60;99.90
21928;DHT22;11128;51.096;17.190;2023-05-07T21:06:34;8.50;99.90
21928;DHT22;11128;51.096;17.190;2023-05-07T21:11:35;8.40;1.00
21928;DHT22;11128;51.096;17.190;2023-05-07T21:16:37;8.20;1.00
21928;DHT22;11128;51.096;17.190;2023-05-07T21:21:40;8.10;1.00
21928;DHT22;11128;51.096;17.190;2023-05-07T21:26:42;8.00;1.00
21928;DHT22;11128;51.096;17.190;2023-05-07T21:31:43;7.90;1.00
21928;DHT22;11128;51.096;17.190;2023-05-07T21:36:44;7.80;1.00
21928;DHT22;11128;51.096;17.190;2023-05-07T21:41:46;7.70;1.00
21928;DHT22;11128;51.096;17.190;2023-05-07T21:46:47;7.60;1.00
21928;DHT22;11128;51.096;17.190;2023-05-07T21:51:48;7.60;1.00
21928;DHT22;11128;51.096;17.190;2023-05-07T21:56:50;7.40;1.00
21928;DHT22;11128;51.096;17.190;2023-05-07T22:01:51;7.20;99.90
21928;DHT22;11128;51.096;17.190;2023-05-07T22:06:52;7.00;99.90
21928;DHT22;11128;51.096;17.190;2023-05-07T22:11:54;6.80;99.90
21928;DHT22;11128;51.096;17.190;2023-05-07T22:16:55;6.60;1.00
21928;DHT22;11128;51.096;17.190;2023-05-07T22:21:56;6.40;1.00
21928;DHT22;11128;51.096;17.190;2023-05-07T22:26:58;6.20;1.00
21928;DHT22;11128;51.096;17.190;2023-05-07T22:31:59;6.70;1.00
21928;DHT22;11128;51.096;17.190;2023-05-07T22:37:00;5.80;94.60
21928;DHT22;11128;51.096;17.190;2023-05-07T22:42:01;5.70;99.90
21928;DHT22;11128;51.096;17.190;2023-05-07T22:47:03;5.40;1.00
21928;DHT22;11128;51.096;17.190;2023-05-07T22:52:05;5.40;99.90
21928;DHT22;11128;51.096;17.190;2023-05-07T22:57:06;5.40;1.00
21928;DHT22;11128;51.096;17.190;2023-05-07T23:02:07;6.10;1.00
21928;DHT22;11128;51.096;17.190;2023-05-07T23:07:09;5.20;1.00
21928;DHT22;11128;51.096;17.190;2023-05-07T23:12:11;5.00;1.00
21928;DHT22;11128;51.096;17.190;2023-05-07T23:17:13;4.90;1.00
21928;DHT22;11128;51.096;17.190;2023-05-07T23:22:14;5.00;1.00
21928;DHT22;11128;51.096;17.190;2023-05-07T23:27:18;4.70;99.90
21928;DHT22;11128;51.096;17.190;2023-05-07T23:32:20;4.40;99.90
21928;DHT22;11128;51.096;17.190;2023-05-07T23:37:22;4.60;99.90
21928;DHT22;11128;51.096;17.190;2023-05-07T23:42:23;4.30;99.90
21928;DHT22;11128;51.096;17.190;2023-05-07T23:47:24;4.30;99.90
21928;DHT22;11128;51.096;17.190;2023-05-07T23:52:26;5.20;99.90
21928;DHT22;11128;51.096;17.190;2023-05-07T23:57:27;4.60;1.00
